createdAt,value
2023-03-21T00:01:54.946Z,63.54
2023-03-21T00:04:23.843Z,63.80
2023-03-21T00:06:55.071Z,64.62
2023-03-21T00:09:24.661Z,65.29
2023-03-21T00:11:53.741Z,64.11
2023-03-21T00:14:23.755Z,64.39
2023-03-21T00:16:53.620Z,64.78
2023-03-21T00:19:26.684Z,64.47
2023-03-21T00:22:07.492Z,64.98
2023-03-21T00:24:37.228Z,64.52
2023-03-21T00:29:57.206Z,64.36
2023-03-21T00:32:25.898Z,64.24
2023-03-21T00:35:11.943Z,64.67
2023-03-21T00:37:45.562Z,64.65
2023-03-21T00:40:27.634Z,64.66
2023-03-21T00:42:59.702Z,64.54
2023-03-21T00:45:28.076Z,64.70
2023-03-21T00:47:56.669Z,64.64
2023-03-21T00:50:25.721Z,64.97
2023-03-21T00:52:55.587Z,64.84
2023-03-21T00:55:26.929Z,65.05
2023-03-21T00:58:01.538Z,65.07
2023-03-21T01:00:32.320Z,65.10
2023-03-21T01:03:17.718Z,65.52
2023-03-21T01:06:07.470Z,65.38
2023-03-21T01:08:55.267Z,64.90
2023-03-21T01:11:26.221Z,65.57
2023-03-21T01:14:01.883Z,65.53
2023-03-21T01:16:33.581Z,65.03
2023-03-21T01:19:05.026Z,65.60
2023-03-21T01:21:35.885Z,65.78
2023-03-21T01:24:06.799Z,65.48
2023-03-21T01:26:37.724Z,65.39
2023-03-21T01:29:06.696Z,65.38
2023-03-21T01:31:35.370Z,65.10
2023-03-21T01:34:04.580Z,65.24
2023-03-21T01:36:33.086Z,64.53
2023-03-21T01:39:07.655Z,65.03
2023-03-21T01:41:45.450Z,65.62
2023-03-21T01:44:28.864Z,65.55
2023-03-21T01:47:09.692Z,65.32
2023-03-21T01:49:52.877Z,65.53
2023-03-21T01:52:36.396Z,65.30
2023-03-21T01:55:15.661Z,65.47
2023-03-21T01:58:08.205Z,65.60
2023-03-21T02:00:44.538Z,65.81
2023-03-21T02:03:36.167Z,65.18
2023-03-21T02:06:44.634Z,65.94
2023-03-21T02:09:27.740Z,65.72
2023-03-21T02:11:58.441Z,65.63
2023-03-21T02:14:33.245Z,66.18
2023-03-21T02:17:21.204Z,65.78
2023-03-21T02:20:22.251Z,65.77
2023-03-21T02:23:25.189Z,65.89
2023-03-21T02:26:40.885Z,65.52
2023-03-21T02:29:24.640Z,65.50
2023-03-21T02:32:03.415Z,65.83
2023-03-21T02:35:08.287Z,64.35
2023-03-21T02:37:38.907Z,64.72
2023-03-21T02:40:12.166Z,64.72
2023-03-21T02:43:00.127Z,64.31
2023-03-21T02:45:41.035Z,64.41
2023-03-21T02:48:20.237Z,62.68
2023-03-21T02:50:57.147Z,63.04
2023-03-21T02:53:54.927Z,63.13
2023-03-21T02:56:40.485Z,64.03
2023-03-21T02:59:10.297Z,63.76
2023-03-21T03:01:39.026Z,63.98
2023-03-21T03:04:20.417Z,63.75
2023-03-21T03:07:02.454Z,63.19
2023-03-21T03:09:41.233Z,63.12
2023-03-21T03:12:16.593Z,62.81
2023-03-21T03:15:03.157Z,62.94
2023-03-21T03:17:45.183Z,63.25
2023-03-21T03:20:29.096Z,62.69
2023-03-21T03:23:05.924Z,62.79
2023-03-21T03:25:43.820Z,62.32
2023-03-21T03:28:21.416Z,62.35
2023-03-21T03:31:05.607Z,62.65
2023-03-21T03:33:43.445Z,62.82
2023-03-21T03:36:30.583Z,62.80
2023-03-21T03:39:05.620Z,63.43
2023-03-21T03:42:08.078Z,63.34
2023-03-21T03:44:38.074Z,63.28
2023-03-21T03:47:15.208Z,63.16
2023-03-21T03:49:56.434Z,63.04
2023-03-21T03:52:31.321Z,62.74
2023-03-21T03:55:11.306Z,63.20
2023-03-21T03:57:46.178Z,63.39
2023-03-21T04:00:17.269Z,62.97
2023-03-21T04:02:46.075Z,62.95
2023-03-21T04:05:21.571Z,63.38
2023-03-21T04:07:51.189Z,63.82
2023-03-21T04:10:26.287Z,63.93
2023-03-21T04:12:57.050Z,63.80
2023-03-21T04:15:37.548Z,63.49
2023-03-21T04:18:13.183Z,63.04
2023-03-21T04:20:42.488Z,63.19
2023-03-21T04:23:11.401Z,62.86
2023-03-21T04:25:53.940Z,62.60
2023-03-21T04:28:29.209Z,63.14
2023-03-21T04:31:24.538Z,62.81
2023-03-21T04:33:59.818Z,62.76
2023-03-21T04:36:33.359Z,62.37
2023-03-21T04:39:04.928Z,61.87
2023-03-21T04:41:34.074Z,61.50
2023-03-21T04:44:04.059Z,60.85
2023-03-21T04:46:33.373Z,60.60
2023-03-21T04:49:01.827Z,60.05
2023-03-21T04:51:33.194Z,59.79
2023-03-21T04:54:03.863Z,59.40
2023-03-21T04:56:36.202Z,59.47
2023-03-21T04:59:10.976Z,59.16
2023-03-21T05:01:41.405Z,58.98
2023-03-21T05:04:11.305Z,58.78
2023-03-21T05:06:42.433Z,58.91
2023-03-21T05:09:12.323Z,58.95
2023-03-21T05:11:42.270Z,59.15
2023-03-21T05:14:17.619Z,58.81
2023-03-21T05:16:53.808Z,58.83
2023-03-21T05:19:26.049Z,59.06
2023-03-21T05:21:55.123Z,58.66
2023-03-21T05:24:28.727Z,58.72
2023-03-21T05:27:04.968Z,58.14
2023-03-21T05:29:45.142Z,57.74
2023-03-21T05:32:13.708Z,58.02
2023-03-21T05:34:42.438Z,58.21
2023-03-21T05:37:11.225Z,57.85
2023-03-21T05:39:47.796Z,58.13
2023-03-21T05:42:24.188Z,57.83
2023-03-21T05:44:54.688Z,57.59
2023-03-21T05:47:28.815Z,57.57
2023-03-21T05:49:59.934Z,57.49
2023-03-21T05:52:32.133Z,57.95
2023-03-21T05:55:02.157Z,57.50
2023-03-21T05:57:35.113Z,58.09
2023-03-21T06:00:09.841Z,59.14
2023-03-21T06:02:44.623Z,60.00
2023-03-21T06:05:34.662Z,61.08
2023-03-21T06:08:03.204Z,61.08
2023-03-21T06:10:31.730Z,61.19
2023-03-21T06:13:04.227Z,62.19
2023-03-21T06:15:37.050Z,61.75
2023-03-21T06:18:12.811Z,61.49
2023-03-21T06:20:49.688Z,61.02
2023-03-21T06:23:18.865Z,61.52
2023-03-21T06:25:48.384Z,61.36
2023-03-21T06:28:17.102Z,62.20
2023-03-21T06:30:49.804Z,62.38
2023-03-21T06:33:24.711Z,62.43
2023-03-21T06:35:57.006Z,63.00
2023-03-21T06:38:26.401Z,62.80
2023-03-21T06:40:56.425Z,63.29
2023-03-21T06:43:27.437Z,64.25
2023-03-21T06:45:57.703Z,63.03
2023-03-21T06:48:26.522Z,63.82
2023-03-21T06:50:56.750Z,63.64
2023-03-21T06:53:28.647Z,64.54
2023-03-21T06:56:36.078Z,63.18
2023-03-21T06:59:06.507Z,62.49
2023-03-21T07:01:52.527Z,62.31
2023-03-21T07:04:21.192Z,60.93
2023-03-21T07:06:51.042Z,60.72
2023-03-21T07:09:24.795Z,60.89
2023-03-21T07:11:56.113Z,62.91
2023-03-21T07:14:28.684Z,63.20
2023-03-21T07:16:58.727Z,64.87
2023-03-21T07:19:27.735Z,65.89
2023-03-21T07:21:56.661Z,67.07
2023-03-21T07:24:25.231Z,67.49
2023-03-21T07:26:54.701Z,69.48
2023-03-21T07:29:23.419Z,68.90
2023-03-21T07:31:55.956Z,70.66
2023-03-21T07:34:27.515Z,71.16
2023-03-21T07:36:57.767Z,70.23
2023-03-21T07:39:26.705Z,70.37
2023-03-21T07:41:56.959Z,70.47
2023-03-21T07:44:33.715Z,69.99
2023-03-21T07:47:05.628Z,70.22
2023-03-21T07:49:37.815Z,69.70
2023-03-21T07:52:08.168Z,70.11
2023-03-21T07:54:36.827Z,70.17
2023-03-21T07:57:05.232Z,69.66
2023-03-21T07:59:33.829Z,69.02
2023-03-21T08:02:02.727Z,67.84
2023-03-21T08:04:32.432Z,69.18
2023-03-21T08:07:04.036Z,68.80
2023-03-21T08:09:32.780Z,69.67
2023-03-21T08:12:01.418Z,69.37
2023-03-21T08:14:30.601Z,69.27
2023-03-21T08:16:59.407Z,68.37
2023-03-21T08:19:32.241Z,68.47
2023-03-21T08:22:02.478Z,68.19
2023-03-21T08:24:37.193Z,67.48
2023-03-21T08:27:06.145Z,68.25
2023-03-21T08:29:34.588Z,67.37
2023-03-21T08:32:06.921Z,67.28
2023-03-21T08:34:37.459Z,67.75
2023-03-21T08:37:07.596Z,67.24
2023-03-21T08:39:37.623Z,68.02
2023-03-21T08:42:06.290Z,66.69
2023-03-21T08:44:35.082Z,66.29
2023-03-21T08:47:03.495Z,66.88
2023-03-21T08:49:32.130Z,65.91
2023-03-21T08:52:00.855Z,66.17
2023-03-21T08:54:31.306Z,65.52
2023-03-21T08:56:59.780Z,64.79
2023-03-21T08:59:28.374Z,65.20
2023-03-21T09:01:59.119Z,65.29
2023-03-21T09:04:27.845Z,64.21
2023-03-21T09:06:56.513Z,64.47
2023-03-21T09:09:31.437Z,64.16
2023-03-21T09:12:01.466Z,64.90
2023-03-21T09:14:30.235Z,65.32
2023-03-21T09:16:58.753Z,65.25
2023-03-21T09:19:28.249Z,64.83
2023-03-21T09:21:57.839Z,64.43
2023-03-21T09:24:26.729Z,64.61
2023-03-21T09:26:58.096Z,65.07
2023-03-21T09:29:28.032Z,63.60
2023-03-21T09:31:57.724Z,63.02
2023-03-21T09:34:26.635Z,62.57
2023-03-21T09:36:56.642Z,62.99
2023-03-21T09:39:27.420Z,63.96
2023-03-21T09:42:13.136Z,63.08
2023-03-21T09:44:53.818Z,62.81
2023-03-21T09:47:29.280Z,63.61
2023-03-21T09:50:13.786Z,63.24
2023-03-21T09:52:49.814Z,63.03
2023-03-21T09:55:27.484Z,63.72
2023-03-21T09:58:06.877Z,62.91
2023-03-21T10:00:40.355Z,62.88
2023-03-21T10:03:18.959Z,62.08
2023-03-21T10:05:48.697Z,61.43
2023-03-21T10:08:25.094Z,61.63
2023-03-21T10:11:00.618Z,62.04
2023-03-21T10:13:32.882Z,60.47
2023-03-21T10:16:08.144Z,60.12
2023-03-21T10:18:39.779Z,60.93
2023-03-21T10:21:08.860Z,61.55
2023-03-21T10:23:37.277Z,62.01
2023-03-21T10:26:08.360Z,61.85
2023-03-21T10:28:52.467Z,62.12
2023-03-21T10:31:26.915Z,61.55
2023-03-21T10:33:58.213Z,60.88
2023-03-21T10:36:31.466Z,61.14
2023-03-21T10:39:05.117Z,61.40
2023-03-21T10:41:34.215Z,61.03
2023-03-21T10:44:08.282Z,61.29
2023-03-21T10:46:38.267Z,60.80
2023-03-21T10:49:09.575Z,60.40
2023-03-21T10:51:39.786Z,60.80
2023-03-21T10:54:10.829Z,60.64
2023-03-21T10:56:42.023Z,60.81
2023-03-21T10:59:19.495Z,60.55
2023-03-21T11:01:55.634Z,60.51
2023-03-21T11:04:26.554Z,60.95
2023-03-21T11:06:59.690Z,60.29
2023-03-21T11:09:44.345Z,59.83
2023-03-21T11:12:14.487Z,59.41
2023-03-21T11:14:44.412Z,58.82
2023-03-21T11:17:26.232Z,57.06
2023-03-21T11:19:59.280Z,57.04
2023-03-21T11:22:32.285Z,57.39
2023-03-21T11:25:02.185Z,57.36
2023-03-21T11:27:32.972Z,57.29
2023-03-21T11:30:05.242Z,56.82
2023-03-21T11:32:39.783Z,56.01
2023-03-21T11:35:15.632Z,54.55
2023-03-21T11:37:47.206Z,53.23
2023-03-21T11:40:23.324Z,52.71
2023-03-21T11:42:53.545Z,51.79
2023-03-21T11:45:24.023Z,51.21
2023-03-21T11:47:56.040Z,50.59
2023-03-21T11:50:29.968Z,50.05
2023-03-21T11:53:14.119Z,50.85
2023-03-21T11:56:03.221Z,50.19
2023-03-21T11:58:38.178Z,50.01
2023-03-21T12:01:14.352Z,50.19
2023-03-21T12:03:57.446Z,49.61
2023-03-21T12:06:30.221Z,50.07
2023-03-21T12:09:07.367Z,50.08
2023-03-21T12:11:49.834Z,49.84
2023-03-21T12:14:27.149Z,49.99
2023-03-21T12:17:06.686Z,49.72
2023-03-21T12:19:49.596Z,49.86
2023-03-21T12:22:26.853Z,50.50
2023-03-21T12:24:57.581Z,50.14
2023-03-21T12:27:37.229Z,50.04
2023-03-21T12:30:18.939Z,49.43
2023-03-21T12:33:00.457Z,49.05
2023-03-21T12:35:39.284Z,49.49
2023-03-21T12:38:17.344Z,49.27
2023-03-21T12:41:05.085Z,48.09
2023-03-21T12:43:44.349Z,48.86
2023-03-21T12:46:19.251Z,48.99
2023-03-21T12:48:51.596Z,48.80
2023-03-21T12:51:27.210Z,48.46
2023-03-21T12:54:03.500Z,47.89
2023-03-21T12:56:35.427Z,48.16
2023-03-21T12:59:14.789Z,48.06
2023-03-21T13:01:44.571Z,48.28
2023-03-21T13:04:33.781Z,48.07
2023-03-21T13:07:11.203Z,47.81
2023-03-21T13:09:41.255Z,47.30
2023-03-21T13:12:33.313Z,47.76
2023-03-21T13:15:18.476Z,47.99
2023-03-21T13:17:57.757Z,48.53
2023-03-21T13:20:40.628Z,48.57
2023-03-21T13:23:13.760Z,48.32
2023-03-21T13:25:45.002Z,48.48
2023-03-21T13:28:20.921Z,48.60
2023-03-21T13:30:52.444Z,48.32
2023-03-21T13:33:30.419Z,48.66
2023-03-21T13:36:05.655Z,47.63
2023-03-21T13:38:40.317Z,48.13
2023-03-21T13:41:09.121Z,47.78
2023-03-21T13:43:45.634Z,47.55
2023-03-21T13:46:15.245Z,47.65
2023-03-21T13:48:57.966Z,47.17
2023-03-21T13:51:44.235Z,46.53
2023-03-21T13:54:29.879Z,45.81
2023-03-21T13:57:04.263Z,46.25
2023-03-21T13:59:44.836Z,46.24
2023-03-21T14:02:24.624Z,46.09
2023-03-21T14:05:05.204Z,47.11
2023-03-21T14:07:38.046Z,46.87
2023-03-21T14:10:15.517Z,46.80
2023-03-21T14:12:45.671Z,47.24
2023-03-21T14:15:20.715Z,46.88
2023-03-21T14:17:55.759Z,47.03
2023-03-21T14:20:29.479Z,46.90
2023-03-21T14:22:58.466Z,46.18
2023-03-21T14:25:40.795Z,45.24
2023-03-21T14:28:18.912Z,45.08
2023-03-21T14:30:54.994Z,45.54
2023-03-21T14:33:29.159Z,45.58
2023-03-21T14:35:59.441Z,45.80
2023-03-21T14:38:35.260Z,45.83
2023-03-21T14:41:06.760Z,46.74
2023-03-21T14:43:35.546Z,45.85
2023-03-21T14:46:04.324Z,45.08
2023-03-21T14:48:36.084Z,44.75
2023-03-21T14:51:06.825Z,46.21
2023-03-21T14:53:39.005Z,45.96
2023-03-21T14:56:19.353Z,46.39
2023-03-21T14:58:51.206Z,46.14
2023-03-21T15:01:27.445Z,45.83
2023-03-21T15:04:00.751Z,46.80
2023-03-21T15:06:38.386Z,46.55
2023-03-21T15:09:17.429Z,46.22
2023-03-21T15:11:53.063Z,47.03
2023-03-21T15:14:26.551Z,46.65
2023-03-21T15:16:56.190Z,47.10
2023-03-21T15:19:34.172Z,46.78
2023-03-21T15:22:18.292Z,46.48
2023-03-21T15:24:49.473Z,46.46
2023-03-21T15:27:20.841Z,44.71
2023-03-21T15:29:54.527Z,44.58
2023-03-21T15:32:26.449Z,45.03
2023-03-21T15:34:56.731Z,45.22
2023-03-21T15:37:27.811Z,44.30
2023-03-21T15:40:11.503Z,44.49
2023-03-21T15:42:43.065Z,45.01
2023-03-21T15:45:19.029Z,44.35
2023-03-21T15:47:55.662Z,44.37
2023-03-21T15:50:29.599Z,44.53
2023-03-21T15:53:01.736Z,44.19
2023-03-21T15:55:40.678Z,44.89
2023-03-21T15:58:17.180Z,44.70
2023-03-21T16:00:55.147Z,44.50
2023-03-21T16:03:26.160Z,44.13
2023-03-21T16:06:05.389Z,43.98
2023-03-21T16:08:38.452Z,43.90
2023-03-21T16:11:14.864Z,43.85
2023-03-21T16:13:45.224Z,44.38
2023-03-21T16:16:17.620Z,44.52
2023-03-21T16:18:46.586Z,44.19
2023-03-21T16:21:17.560Z,43.70
2023-03-21T16:23:46.938Z,43.31
2023-03-21T16:29:02.025Z,44.34
2023-03-21T16:31:32.576Z,43.98
2023-03-21T16:34:06.141Z,44.17
2023-03-21T16:36:38.992Z,43.32
2023-03-21T16:39:18.095Z,43.37
2023-03-21T16:41:47.017Z,43.82
2023-03-21T16:44:18.666Z,44.05
2023-03-21T16:46:55.183Z,43.48
2023-03-21T16:49:26.208Z,43.78
2023-03-21T16:51:57.718Z,44.26
2023-03-21T16:54:27.260Z,43.86
2023-03-21T16:56:58.974Z,43.42
2023-03-21T16:59:31.553Z,44.07
2023-03-21T17:02:00.916Z,44.28
2023-03-21T17:04:32.801Z,45.29
2023-03-21T17:07:01.430Z,45.81
2023-03-21T17:09:30.257Z,46.46
2023-03-21T17:12:01.614Z,46.08
2023-03-21T17:14:32.293Z,46.17
2023-03-21T17:17:07.062Z,46.88
2023-03-21T17:19:36.048Z,47.67
2023-03-21T17:22:05.019Z,47.95
2023-03-21T17:24:34.736Z,48.05
2023-03-21T17:27:04.963Z,49.52
2023-03-21T17:29:35.020Z,49.62
2023-03-21T17:32:03.484Z,50.32
2023-03-21T17:34:34.561Z,51.29
2023-03-21T17:37:03.281Z,52.58
2023-03-21T17:39:32.450Z,54.11
2023-03-21T17:42:01.090Z,56.63
2023-03-21T17:44:32.205Z,62.10
2023-03-21T17:47:02.804Z,64.14
2023-03-21T17:49:31.123Z,68.34
2023-03-21T17:51:59.536Z,71.88
2023-03-21T17:54:28.024Z,73.53
2023-03-21T17:56:56.773Z,74.44
2023-03-21T17:59:25.605Z,75.34
2023-03-21T18:01:57.306Z,76.25
2023-03-21T18:04:28.162Z,76.66
2023-03-21T18:07:01.479Z,76.31
2023-03-21T18:09:30.435Z,77.57
2023-03-21T18:11:58.927Z,77.60
2023-03-21T18:14:29.140Z,78.97
2023-03-21T18:16:59.327Z,79.64
2023-03-21T18:19:34.658Z,80.76
2023-03-21T18:22:03.934Z,81.65
2023-03-21T18:24:34.185Z,82.25
2023-03-21T18:27:03.093Z,82.69
2023-03-21T18:32:26.536Z,83.47
2023-03-21T18:35:00.549Z,84.24
2023-03-21T18:37:35.413Z,84.35
2023-03-21T18:40:09.926Z,85.07
2023-03-21T18:42:39.080Z,85.01
2023-03-21T18:45:10.062Z,84.96
2023-03-21T18:47:39.313Z,85.03
2023-03-21T18:50:14.407Z,85.93
2023-03-21T18:52:44.023Z,85.67
2023-03-21T18:55:14.895Z,85.60
2023-03-21T18:57:45.985Z,86.03
2023-03-21T19:00:18.492Z,85.50
2023-03-21T19:03:03.993Z,85.99
2023-03-21T19:05:41.272Z,86.45
2023-03-21T19:08:10.087Z,85.68
2023-03-21T19:10:41.623Z,86.07
2023-03-21T19:13:10.433Z,85.84
2023-03-21T19:15:50.854Z,85.45
2023-03-21T19:21:11.681Z,85.45
2023-03-21T19:24:16.310Z,84.73
2023-03-21T19:26:29.268Z,84.86
2023-03-21T19:28:58.315Z,85.14
2023-03-21T19:31:27.583Z,84.84
2023-03-21T19:33:58.267Z,84.78
2023-03-21T19:36:28.617Z,85.30
2023-03-21T19:38:59.873Z,85.25
2023-03-21T19:41:28.504Z,85.15
2023-03-21T19:43:59.854Z,84.99
2023-03-21T19:46:30.353Z,85.51
2023-03-21T19:48:59.549Z,85.39
2023-03-21T19:51:30.745Z,85.12
2023-03-21T19:53:59.946Z,85.77
2023-03-21T19:56:31.575Z,85.26
2023-03-21T19:59:01.804Z,85.29
2023-03-21T20:01:32.270Z,85.15
2023-03-21T20:04:02.341Z,85.65
2023-03-21T20:06:32.392Z,85.56
2023-03-21T20:11:50.173Z,85.92
2023-03-21T20:14:19.113Z,85.38
2023-03-21T20:16:49.968Z,85.47
2023-03-21T20:19:20.243Z,85.45
2023-03-21T20:21:58.008Z,86.44
2023-03-21T20:24:28.511Z,86.15
2023-03-21T20:26:59.438Z,86.14
2023-03-21T20:30:07.581Z,86.17
2023-03-21T20:32:17.161Z,86.03
2023-03-21T20:34:46.212Z,86.10
2023-03-21T20:37:16.620Z,85.98
2023-03-21T20:39:45.412Z,85.82
2023-03-21T20:42:14.003Z,86.14
2023-03-21T20:44:57.790Z,85.85
2023-03-21T20:47:28.596Z,86.56
2023-03-21T20:49:58.567Z,86.36
2023-03-21T20:52:57.517Z,85.73
2023-03-21T20:55:21.692Z,86.40
2023-03-21T20:57:51.523Z,86.13
2023-03-21T21:00:22.339Z,85.80
2023-03-21T21:02:52.085Z,86.48
2023-03-21T21:05:28.198Z,85.92
2023-03-21T21:07:59.725Z,86.35
2023-03-21T21:10:28.908Z,86.10
2023-03-21T21:12:57.805Z,86.03
2023-03-21T21:15:26.570Z,86.24
2023-03-21T21:18:06.696Z,86.33
2023-03-21T21:20:37.222Z,87.28
2023-03-21T21:23:09.674Z,86.47
2023-03-21T21:25:39.040Z,86.90
2023-03-21T21:28:09.579Z,86.70
2023-03-21T21:30:41.891Z,86.60
2023-03-21T21:33:10.880Z,86.48
2023-03-21T21:35:39.630Z,87.10
2023-03-21T21:38:11.336Z,86.93
2023-03-21T21:40:40.560Z,86.82
2023-03-21T21:43:09.530Z,87.25
2023-03-21T21:45:38.154Z,87.47
2023-03-21T21:48:08.440Z,87.20
2023-03-21T21:50:37.818Z,86.71
2023-03-21T21:53:10.242Z,87.20
2023-03-21T21:55:38.761Z,87.54
2023-03-21T21:58:08.608Z,86.89
2023-03-21T22:00:37.377Z,87.20
2023-03-21T22:03:09.860Z,87.50
2023-03-21T22:05:39.086Z,86.77
2023-03-21T22:08:10.563Z,86.82
2023-03-21T22:10:40.932Z,87.03
2023-03-21T22:13:10.891Z,87.42
2023-03-21T22:15:41.003Z,87.60
2023-03-21T22:18:11.470Z,86.94
2023-03-21T22:20:40.529Z,87.54
2023-03-21T22:23:11.770Z,86.92
2023-03-21T22:25:43.520Z,87.38
2023-03-21T22:28:14.091Z,87.13
2023-03-21T22:30:42.569Z,87.85
2023-03-21T22:33:11.020Z,87.26
2023-03-21T22:35:41.022Z,87.82
2023-03-21T22:38:10.088Z,87.76
2023-03-21T22:40:38.847Z,87.55
2023-03-21T22:43:11.018Z,87.39
2023-03-21T22:45:39.576Z,87.88
2023-03-21T22:48:08.077Z,88.03
2023-03-21T22:50:37.795Z,87.33
2023-03-21T22:53:06.585Z,87.27
2023-03-21T22:55:35.170Z,87.70
2023-03-21T22:58:04.851Z,87.78
2023-03-21T23:00:35.131Z,87.79
2023-03-21T23:03:06.544Z,87.74
2023-03-21T23:05:36.790Z,88.48
2023-03-21T23:08:05.941Z,88.23
2023-03-21T23:10:37.503Z,88.48
2023-03-21T23:13:06.759Z,88.42
2023-03-21T23:15:38.634Z,88.53
2023-03-21T23:18:07.555Z,88.51
2023-03-21T23:20:35.968Z,88.03
2023-03-21T23:23:05.657Z,88.03
2023-03-21T23:25:39.034Z,88.73
2023-03-21T23:28:09.385Z,88.24
2023-03-21T23:30:40.320Z,89.03
2023-03-21T23:33:09.081Z,89.51
2023-03-21T23:35:41.381Z,89.47
2023-03-21T23:38:10.582Z,89.75
2023-03-21T23:40:40.682Z,89.24
2023-03-21T23:43:09.870Z,89.48
2023-03-21T23:45:40.194Z,89.98
2023-03-21T23:48:09.072Z,89.66
2023-03-21T23:50:37.899Z,90.26
2023-03-21T23:53:07.075Z,90.69
2023-03-21T23:55:37.776Z,90.28
2023-03-21T23:58:09.424Z,90.84
